Terminal Aerodrome Forecast
Issued by NWS

Home | Current Version | Previous Version | Text Only | Print | Product List | Glossary On
Versions: 1 2 3 4 5 6 7 8 9 10 11 12 13 14 15 16 17 18 19 20 21 22
154
FTUS44 KMAF 071120
TAFFST
TAF
KFST 071120Z 0712/0812 24011KT P6SM BKN130
     FM072200 20006KT P6SM OVC070
     FM080700 04010G20KT 5SM BR OVC006=

USA.gov is the U.S. government's official web portal to all federal, state and local government web resources and services.